Portada
METAR-TAF:

METAR-TAF

Aeropuertos :

Kulob, Tayikistán

latitud: 37-59-18N, longitud: 069-48-18E, altitud: 699 m

Observación

El informe se hizo hace 31 minutos, a las 05:00 UTC
Viento 4 kt con dirección variable
Temperatura 31°C
Humedad 31%
Presión 1016 hPa
Visibilidad 10 km o más

METAR: UTDK 250500Z VRB02MPS 9999 NSC 31/12 Q1016 R01/09//70 RMK QFE704/0939

Hora: 10:31 (05:31 UTC)

Pronóstico

El informe se hizo hace 2 horas y 31 minutos, a las 03:00 UTC
Pronóstico válido del 25 a las 04 UTC al 25 a las 13 UTC
Viento 4 kt con dirección variable
Visibilidad: 6000 m
Nubes dispersas a una altura de 6600 ft, Cumulonimbus.
Nubes dispersas a una altura de 12000 ft
Temporalmente
del 25 a las 05 UTC al 25 a las 13 UTC
Viento 10 kt del sur-suroeste

TAF: UTDK 250300Z 2504/2513 VRB02MPS 6000 SCT066CB SCT120 TEMPO 2505/2513 21005MPS

Observaciones y pronósticos meteorológicos de más de 4000 aeropuertos (mensajes METAR y TAF).

Los puntos amarillos y rojos representan las estaciones disponibles.

Ponga el ratón en el punto deseado para ver el nombre de la estación.

Haga clic para ver las observaciones y los pronósticos meteorológicos.

Para cambiar el mapa : haga clic en los botones verdes con una cruz de color negro para hacer un zoom, en el botón verde con un guión para alejar o en las flechas verdes para mapas adyacentes.


METAR-TAF: